x

8447387 - Borden Flats Light At Fall River, Ma (bltm3) Weather Station

11:54 - Mon 6th Jul 2015 All times are EDT. -4 hours from GMT.

  • Wind
    7mph, 9mph gusts
  • Aire Temp 71°f
  • Sea Pressure 1019.7mb
  • 8447387 - Borden Flats Light At Fall River, Ma
  • 8447387 - Borden Flats Light At Fall River, Ma

More Historic Weather Station data

Upgrade to MSW Pro to gain access to the past 30 days of data for over 8000 Wavebouys and Weather Stations around the globe.

Join Pro

Comparision Forecast

View Surf forecast
   
lun 07/06 11:54 7 9 mph 1019.7mb 71f
11:48 8 11 mph 1019.6mb 71f
11:42 6 9 mph 1019.5mb 71f
11:36 2 3 mph 1019.6mb 71f
11:30 5 7 mph 1019.6mb 71f
11:24 6 7 mph 1019.5mb 71f
11:18 6 7 mph 1019.5mb 71f
11:12 8 9 mph 1019.5mb 71f
11:06 8 9 mph 1019.4mb 71f
11:00 8 10 mph 1019.4mb 71f
10:54 7 9 mph 1019.5mb 71f
10:48 7 8 mph 1019.6mb 71f
10:42 8 10 mph 1019.6mb 71f
10:36 8 10 mph 1019.7mb 71f
10:30 8 10 mph 1019.7mb 71f
10:24 9 11 mph 1019.6mb 71f
10:18 7 10 mph 1019.7mb 71f
10:12 5 7 mph 1019.7mb 72f
10:06 6 7 mph 1019.7mb 72f
10:00 3 6 mph 1019.8mb 72f
9:54 3 5 mph 1019.8mb 72f
9:48 2 5 mph 1019.8mb 72f
9:42 5 6 mph 1019.8mb 72f
9:36 5 7 mph 1019.8mb 72f
9:30 7 9 mph 1019.9mb 72f
9:24 7 9 mph 1019.9mb 72f
9:18 9 11 mph 1019.9mb 72f
9:12 7 9 mph 1019.9mb 72f
9:06 6 7 mph 1019.9mb 72f
9:00 6 8 mph 1019.9mb 72f
8:54 8 9 mph 1019.9mb 73f
8:48 8 10 mph 1019.9mb 73f
8:42 8 10 mph 1020mb 73f
8:36 8 10 mph 1019.9mb 73f
8:30 10 13 mph 1020mb 73f
8:24 9 10 mph 1020mb 73f
8:18 9 11 mph 1020.1mb 73f
8:12 7 10 mph 1020.1mb 74f
8:06 8 10 mph 1020.1mb 74f
8:00 10 13 mph 1020.1mb 74f
7:54 9 11 mph 1020.1mb 74f
7:48 11 15 mph 1020mb 74f
7:42 11 15 mph 1020mb 74f
7:36 11 14 mph 1019.9mb 75f
7:30 14 15 mph 1020mb 75f
7:24 13 16 mph 1020mb 75f
7:18 13 15 mph 1020.1mb 75f
7:12 11 14 mph 1020mb 75f
7:06 13 16 mph 1020mb 75f
7:00 13 15 mph 1020mb 76f
6:54 14 18 mph 1020mb 76f
6:48 14 16 mph 1020.1mb 76f
6:42 13 18 mph 1020mb 76f
6:36 11 15 mph 1020.1mb 77f
6:30 10 14 mph 1019.9mb 77f
6:24 11 15 mph 1019.8mb 78f
6:18 13 15 mph 1019.7mb 77f
6:12 11 15 mph 1019.8mb 78f
6:06 9 11 mph 1019.8mb 78f
6:00 10 13 mph 1019.8mb 78f
5:54 9 13 mph 1019.8mb 78f
5:48 13 15 mph 1019.8mb 78f
5:42 14 16 mph 1019.8mb 78f
5:36 14 15 mph 1019.8mb 78f
5:30 11 14 mph 1019.8mb 78f
5:24 14 17 mph 1019.9mb 78f
5:18 15 16 mph 1019.8mb 78f
5:12 13 16 mph 1019.9mb 79f
5:06 13 15 mph 1019.9mb 79f
5:00 13 16 mph 1020mb 79f
4:54 13 15 mph 1020.1mb 79f
4:48 15 17 mph 1020.1mb 79f
4:42 14 16 mph 1020.1mb 79f
4:36 15 17 mph 1020.1mb 78f
4:30 16 18 mph 1020.2mb 78f
4:24 16 18 mph 1020.2mb 78f
4:18 16 20 mph 1020.3mb 78f
4:12 15 18 mph 1020.2mb 78f
4:06 17 18 mph 1020.3mb 78f
4:00 16 18 mph 1020.3mb 78f
3:54 15 17 mph 1020.3mb 78f
3:48 15 18 mph 1020.3mb 78f
3:42 17 18 mph 1020.4mb 78f
3:36 15 17 mph 1020.5mb 78f
3:30 17 20 mph 1020.5mb 78f
3:24 17 21 mph 1020.5mb 78f
3:18 18 22 mph 1020.6mb 78f
3:12 16 21 mph 1020.6mb 78f
3:06 18 23 mph 1020.6mb 78f
3:00 18 22 mph 1020.6mb 78f
2:54 20 22 mph 1020.6mb 77f
2:48 18 21 mph 1020.6mb 77f
2:42 17 20 mph 1020.8mb 78f
2:36 17 22 mph 1020.9mb 78f
2:30 15 18 mph 1021mb 78f
2:24 17 20 mph 1021mb 78f
2:18 18 21 mph 1021.1mb 78f
2:12 15 20 mph 1021.1mb 79f
2:06 14 17 mph 1021.1mb 80f
2:00 17 21 mph 1020.9mb 79f
1:54 16 17 mph 1020.9mb 78f
1:48 16 17 mph 1021mb 78f
1:42 15 16 mph 1020.9mb 77f
1:36 15 16 mph 1020.9mb 77f
1:30 14 15 mph 1021mb 78f
1:24 14 15 mph 1021mb 77f
1:18 13 14 mph 1021.1mb 77f
1:12 13 14 mph 1021.1mb 77f
1:06 14 15 mph 1021.1mb 77f
1:00 11 13 mph 1021mb 77f
12:54 8 10 mph 1020.9mb 78f
12:48 6 7 mph 1020.9mb 78f
12:42 6
mph
1021.1mb 77f
12:36 6
mph
1021.2mb 77f
12:30 7
mph
1021.3mb 77f
12:24 7
mph
1021.4mb 77f
12:18 7
mph
1021.4mb 77f
12:12 7
mph
1021.4mb 76f
12:06 7 8 mph 1021.5mb 76f
12:00 8
mph
1021.6mb 76f
11:54 7 8 mph 1021.7mb 76f
11:48 6
mph
1021.7mb 76f
11:42 5 6 mph 1021.6mb 75f
11:36 5 6 mph 1021.6mb 75f
11:30 5
mph
1021.6mb 74f
11:24 5
mph
1021.6mb 74f
11:18 5
mph
1021.6mb 74f
11:12 5
mph
1021.5mb 74f
11:06 5
mph
1021.5mb 74f
11:00 5
mph
1021.4mb 73f
10:54 5 6 mph 1021.4mb 73f
10:48 5
mph
1021.3mb 73f
10:42 5 6 mph 1021.4mb 73f
10:36 5
mph
1021.4mb 73f
10:30 5 6 mph 1021.4mb 73f
10:24 6
mph
1021.4mb 72f
10:18 5 6 mph 1021.4mb 72f
10:12 6
mph
1021.3mb 72f
10:06 6 7 mph 1021.3mb 72f
10:00 6
mph
1021.1mb 72f
9:54 7
mph
1021.1mb 72f
9:48 6 7 mph 1021.1mb 72f
9:42 5 6 mph 1021.1mb 71f
9:36 5 6 mph 1021.2mb 71f
9:30 6 7 mph 1021.1mb 71f
9:24 6 7 mph 1021mb 71f
9:18 5 6 mph 1020.9mb 71f
9:12 6 7 mph 1020.9mb 71f
9:06 6
mph
1020.8mb 70f
9:00 5 6 mph 1020.9mb 70f
8:54 5 6 mph 1021mb 70f
8:48 5 6 mph 1021mb 70f
8:42 6
mph
1021mb 70f
8:36 6
mph
1021mb 70f
8:30 6
mph
1021mb 70f
8:24 6 7 mph 1021mb 69f
8:18 7 8 mph 1021mb 69f
8:12 6 7 mph 1021mb 70f
8:06 6 7 mph 1021mb 70f
8:00 6
mph
1021mb 70f
7:54 5 6 mph 1021mb 70f
7:48 5 6 mph 1021mb 69f
7:42 6
mph
1020.9mb 69f
7:36 6
mph
1020.9mb 69f
7:30 6
mph
1020.9mb 69f
7:24 6
mph
1020.9mb 69f
7:18 6 7 mph 1020.8mb 69f
7:12 6 7 mph 1020.8mb 69f
7:06 7 8 mph 1020.9mb 69f
7:00 7 8 mph 1020.9mb 69f
6:54 6
mph
1020.9mb 69f
6:48 6
mph
1020.9mb 69f
6:42 3 5 mph 1020.9mb 69f
6:36 3
mph
1020.8mb 69f
6:30 2 3 mph 1020.9mb 69f
6:24 2 3 mph 1020.9mb 68f
6:18 1 2 mph 1020.9mb 68f
6:12  -  2 mph 1020.8mb 68f
6:06 1 2 mph 1020.8mb 68f
6:00 2
mph
1020.8mb 68f
5:54 3
mph
1020.8mb 68f
5:48 3
mph
1020.8mb 68f
5:42 3
mph
1020.8mb 68f
5:36 2 3 mph 1020.7mb 68f
5:30 3 5 mph 1020.6mb 68f
5:24 3 5 mph 1020.6mb 68f
5:18 3 5 mph 1020.6mb 68f
5:12 5
mph
1020.5mb 68f
5:06 5 6 mph 1020.5mb 68f
5:00 5
mph
1020.4mb 68f
4:54 5 6 mph 1020.3mb 69f
4:48 3 5 mph 1020.3mb 69f
4:42 6
mph
1020.3mb 69f
4:36 5 6 mph 1020.3mb 69f
4:30 6
mph
1020.3mb 69f
4:24 5
mph
1020.3mb 69f
4:18 5
mph
1020.3mb 69f
4:12 3 5 mph 1020.3mb 69f
4:06 3 5 mph 1020.2mb 69f
4:00 5 6 mph 1020.2mb 69f
3:54 3 5 mph 1020.2mb 69f
3:48 5 6 mph 1020.2mb 69f
3:42 5 7 mph 1020.2mb 69f
3:36 5
mph
1020.3mb 69f
3:30 5 6 mph 1020.3mb 69f
3:24 5
mph
1020.3mb 69f
3:18 6
mph
1020.4mb 69f
3:12 5 6 mph 1020.4mb 69f
3:06 3 5 mph 1020.3mb 69f
3:00 5
mph
1020.3mb 69f
2:54 5 6 mph 1020.3mb 69f
2:48 5
mph
1020.3mb 70f
2:42 5 6 mph 1020.3mb 70f
2:36 6 7 mph 1020.3mb 70f
2:30 6
mph
1020.3mb 70f
2:24 6
mph
1020.3mb 70f
2:18 6 7 mph 1020.2mb 70f
2:12 6 7 mph 1020.2mb 70f
2:06 7 8 mph 1020.2mb 70f
2:00 6 7 mph 1020.2mb 70f
1:54 6
mph
1020.2mb 70f
1:48 6 7 mph 1020.3mb 70f
1:42 7 8 mph 1020.3mb 70f
1:36 6
mph
1020.3mb 70f
1:30 7 8 mph 1020.3mb 70f
1:24 6 7 mph 1020.3mb 71f
1:18 7 8 mph 1020.3mb 71f
1:12 7 8 mph 1020.2mb 71f
1:06 7 9 mph 1020.3mb 70f
1:00 8 9 mph 1020.3mb 71f
12:54 9 10 mph 1020.4mb 71f
12:48 9 10 mph 1020.4mb 71f
12:42 9 10 mph 1020.4mb 71f
12:36 10 11 mph 1020.4mb 71f
12:30 11 13 mph 1020.4mb 71f
12:24 10 11 mph 1020.3mb 71f
12:18 10 13 mph 1020.4mb 71f
12:12 11 13 mph 1020.3mb 71f
12:06 10 13 mph 1020.3mb 71f
12:00 11 14 mph 1020.4mb 71f
dom 07/05 11:54 13 14 mph 1020.3mb 71f
11:48 13 15 mph 1020.3mb 71f
11:42 13 14 mph 1020.3mb 71f
11:36 13 14 mph 1020.3mb 72f
11:30 13 14 mph 1020.3mb 72f
11:24 10 11 mph 1020.3mb 72f
11:18 10 11 mph 1020.2mb 72f
11:12 9 10 mph 1020.2mb 72f
11:06 9 10 mph 1020.2mb 72f
11:00 9
mph
1020.2mb 72f
10:54 9 10 mph 1020mb 72f
10:48 9 10 mph 1019.9mb 72f
10:42 9 10 mph 1019.9mb 72f
10:36 9 10 mph 1019.9mb 72f
10:30 9 10 mph 1019.9mb 73f
10:24 10 11 mph 1019.8mb 73f
10:18 9 10 mph 1019.8mb 73f
10:12 8 9 mph 1019.7mb 73f
10:06 7 8 mph 1019.6mb 73f
10:00 8 9 mph 1019.7mb 73f
9:54 8 9 mph 1019.7mb 73f
9:48 8 9 mph 1019.6mb 73f
9:42 8 9 mph 1019.6mb 73f
9:36 8 9 mph 1019.6mb 74f
9:30 8 9 mph 1019.5mb 73f
9:24 9 11 mph 1019.4mb 74f
9:18 11 13 mph 1019.2mb 74f
9:12 11 13 mph 1019.2mb 74f
9:06 11 14 mph 1019.1mb 74f
9:00 13 14 mph 1019mb 74f
8:54 13 14 mph 1018.9mb 74f
8:48 13 14 mph 1018.9mb 74f
8:42 15 16 mph 1018.8mb 74f
8:36 15 17 mph 1018.8mb 74f
8:30 15 16 mph 1018.7mb 74f
8:24 15 16 mph 1018.7mb 74f
8:18 15 17 mph 1018.6mb 74f
8:12 14 16 mph 1018.5mb 75f
8:06 15 18 mph 1018.4mb 75f
8:00 17 20 mph 1018.4mb 75f
7:54 17 20 mph 1018.4mb 75f
7:48 16 18 mph 1018.4mb 75f
7:42 14 17 mph 1018.4mb 75f
7:36 10 17 mph 1018.4mb 76f
7:24 14 18 mph 1018.4mb 76f
7:18 14 16 mph 1018.3mb 76f
7:12 14 16 mph 1018.3mb 75f
7:06 14 16 mph 1018.2mb 75f
7:00 15 16 mph 1018.2mb 75f
6:54 15 16 mph 1018.2mb 75f
6:48 16 17 mph 1018mb 75f
6:42 16 17 mph 1018mb 75f
6:36 17 18 mph 1018mb 76f
6:30 17 18 mph 1017.8mb 76f
6:24 16 20 mph 1017.7mb 76f
6:18 16 20 mph 1017.7mb 77f
6:12 16 18 mph 1017.7mb 77f
6:06 15 18 mph 1017.7mb 77f
6:00 15 17 mph 1017.7mb 77f
5:54 15 18 mph 1017.6mb 77f
5:48 15 17 mph 1017.7mb 78f
5:42 15 18 mph 1017.7mb 77f
5:36 16 18 mph 1017.7mb 77f
5:30 16 17 mph 1017.8mb 76f
5:24 17 18 mph 1017.8mb 77f
5:18 16 18 mph 1017.8mb 77f
5:12 16 18 mph 1017.9mb 77f
5:06 17 18 mph 1017.9mb 77f
5:00 15 17 mph 1017.9mb 77f
4:54 14 16 mph 1017.9mb 78f
4:48 14 16 mph 1017.9mb 77f
4:42 14 16 mph 1017.9mb 77f
4:36 15 16 mph 1017.9mb 77f
4:30 15 17 mph 1017.8mb 77f
4:24 15 17 mph 1017.7mb 77f
4:18 15 17 mph 1017.7mb 77f
4:12 17 18 mph 1017.7mb 77f
4:06 16 17 mph 1017.7mb 77f
4:00 14 17 mph 1017.8mb 77f
3:54 16 17 mph 1017.7mb 77f
3:48 13 15 mph 1017.8mb 77f
3:42 13 15 mph 1017.8mb 78f
3:36 13 14 mph 1017.8mb 77f
3:30 14 16 mph 1017.8mb 78f
3:24 11 14 mph 1017.8mb 78f
3:18 13 14 mph 1017.8mb 78f
3:12 14 15 mph 1017.8mb 77f
3:06 13 14 mph 1017.8mb 77f
3:00 14 16 mph 1017.8mb 77f
2:54 14 16 mph 1017.8mb 77f
2:48 13 14 mph 1017.8mb 77f
2:42 13 15 mph 1017.9mb 76f
2:36 14 15 mph 1017.9mb 77f
2:30 15 16 mph 1017.9mb 76f
2:24 15
mph
1018mb 76f
2:18 13 15 mph 1018mb 75f
2:12 11 13 mph 1018.1mb 76f
2:06 13
mph
1018mb 77f
2:00 13
mph
1018mb 76f
1:54 11 13 mph 1018mb 77f
1:48 11 13 mph 1018.1mb 77f
1:42 11 14 mph 1018.2mb 77f
1:36 13
mph
1018.1mb 76f
1:30 11
mph
1018.2mb 76f
1:24 11 13 mph 1018.2mb 76f
1:18 11 13 mph 1018.3mb 76f
1:12 13 14 mph 1018.3mb 76f
1:06 11 13 mph 1018.3mb 75f
1:00 13
mph
1018.3mb 76f
12:54 11 13 mph 1018.3mb 75f
12:48 13 14 mph 1018.4mb 75f
12:42 11 13 mph 1018.3mb 75f
12:36 10 11 mph 1018.3mb 75f
12:30 11 13 mph 1018.4mb 75f
12:24 13 14 mph 1018.4mb 74f
12:18 13 14 mph 1018.2mb 74f
12:12 11 13 mph 1018.1mb 74f
12:06 11 13 mph 1018.2mb 74f
12:00 10
mph
1018.2mb 74f
11:54 9 10 mph 1018.2mb 74f
11:48 8
mph
1018.2mb 73f
11:42 7
mph
1018.2mb 73f
11:36 7 8 mph 1018.2mb 73f
11:30 8 9 mph 1018.2mb 73f
11:24 9 10 mph 1018.3mb 73f
11:18 10 11 mph 1018.3mb 73f
11:12 11 13 mph 1018.3mb 73f
11:06 11 13 mph 1018.3mb 72f
11:00 11
mph
1018.3mb 72f
10:54 11
mph
1018.3mb 72f
10:48 9 10 mph 1018.3mb 72f
10:42 8 9 mph 1018.2mb 72f
10:36 7 8 mph 1018.1mb 72f
10:30 6 7 mph 1018.2mb 72f
10:24 6
mph
1018.3mb 71f
10:18 7
mph
1018.2mb 71f
10:12 8
mph
1018.2mb 71f
10:06 7 8 mph 1018.2mb 71f
10:00 8 9 mph 1018.2mb 71f
9:54 8 9 mph 1018.3mb 70f
9:48 8 9 mph 1018.3mb 70f
9:42 7 8 mph 1018.5mb 70f
9:36 8
mph
1018.5mb 70f
9:30 8 9 mph 1018.4mb 70f
9:24 8 9 mph 1018.5mb 69f
9:18 8 9 mph 1018.4mb 69f
9:12 8
mph
1018.3mb 69f
9:06 7 8 mph 1018.4mb 69f
9:00 7 8 mph 1018.4mb 69f
8:54 7 8 mph 1018.4mb 68f
8:48 7 8 mph 1018.2mb 68f
8:42 8
mph
1018.2mb 68f
8:36 7 8 mph 1018.2mb 68f
8:30 8 9 mph 1018.1mb 68f
8:24 6 8 mph 1018mb 68f
8:18 7 8 mph 1018.1mb 68f
8:12 6 8 mph 1018mb 67f
8:06 7 8 mph 1017.9mb 67f
8:00 7 9 mph 1017.9mb 67f
7:54 8 9 mph 1017.8mb 67f
7:48 7 9 mph 1017.8mb 67f
7:42 7 8 mph 1017.7mb 67f
7:36 8 9 mph 1017.7mb 66f
7:30 7 9 mph 1017.6mb 66f
7:24 8 9 mph 1017.5mb 66f
7:18 8 9 mph 1017.5mb 66f
7:12 8 10 mph 1017.4mb 66f
7:06 8 9 mph 1017.4mb 66f
7:00 9 10 mph 1017.3mb 66f
6:54 9 10 mph 1017.3mb 66f
6:48 8 9 mph 1017.2mb 66f
6:42 9 11 mph 1017.2mb 66f
6:36 9 11 mph 1017.1mb 66f
6:30 11 13 mph 1017.1mb 66f
6:24 11 13 mph 1017mb 66f
6:18 10 13 mph 1016.8mb 66f
6:12 10 11 mph 1016.8mb 65f
6:06 10 13 mph 1016.7mb 65f
6:00 9 10 mph 1016.7mb 66f
5:54 9 10 mph 1016.6mb 66f
5:48 10 11 mph 1016.6mb 66f
5:42 9 11 mph 1016.5mb 66f
5:36 9 10 mph 1016.5mb 66f
5:30 8 9 mph 1016.4mb 67f
5:24 8 9 mph 1016.3mb 67f
5:18 8 9 mph 1016.3mb 66f
5:12 6 8 mph 1016.2mb 66f
5:06 6 7 mph 1016.2mb 66f
5:00 6
mph
1016.1mb 66f
4:54 6 7 mph 1016.1mb 65f
4:48 6 7 mph 1016.1mb 65f
4:42 6 8 mph 1016mb 65f
4:36 5 6 mph 1016.1mb 65f
4:30 6
mph
1016.2mb 64f
4:24 6
mph
1016.2mb 65f
4:18 5 6 mph 1016.1mb 65f
4:12 3 5 mph 1016.1mb 65f
4:06 3 5 mph 1016mb 65f
4:00 5 6 mph 1016mb 65f
3:54 3 5 mph 1016mb 65f
3:48 3 5 mph 1015.9mb 65f
3:42 2 3 mph 1015.8mb 65f
3:36 2 3 mph 1015.9mb 65f
3:30 2 3 mph 1015.9mb 65f
3:24 3
mph
1015.8mb 65f
3:18 2 3 mph 1015.9mb 65f
3:12  -  1 mph 1015.9mb 65f
3:06  -  1 mph 1015.9mb 65f
3:00 1 2 mph 1015.9mb 65f
2:54 2 3 mph 1015.9mb 65f
2:48  -  mph - 65f
2:42  -  mph - 65f
2:36  -  mph - 65f
2:30 2
mph
1015.9mb 64f
2:24 2 3 mph 1015.9mb 64f
2:18 1 2 mph 1015.9mb 64f
2:12  -  2 mph 1015.9mb 64f
2:06  -  2 mph 1016mb 64f
2:00  -  1 mph 1016mb 64f
1:54  -  1 mph 1015.9mb 64f
1:48  -  1 mph 1016mb 64f
1:42  -  1 mph 1016mb 64f
1:36 1 2 mph 1016mb 64f
1:30 2
mph
1016mb 65f
1:24  -  1 mph 1015.9mb 65f
1:18  -  1 mph 1015.8mb 65f
1:12  -  1 mph 1015.8mb 65f
1:06  -  1 mph 1015.7mb 65f
1:00  -  1 mph 1015.6mb 65f
12:54  -  1 mph 1015.6mb 65f
12:48  -  1 mph 1015.6mb 65f
12:42  -  1 mph 1015.6mb 65f
12:36 1 2 mph 1015.6mb 65f
12:30 1 2 mph 1015.6mb 65f
12:24 1 2 mph 1015.6mb 65f
12:18 1 2 mph 1015.5mb 65f
12:12 1 2 mph 1015.5mb 66f
12:06 2
mph
1015.6mb 66f
12:00  -  2 mph 1015.5mb 66f
sáb 07/04 11:54  -  1 mph 1015.5mb 66f
11:48 1 2 mph 1015.4mb 66f
11:42 2
mph
1015.4mb 66f
11:36 1 2 mph 1015.4mb 66f
11:30  -  mph 1015.2mb 66f
11:24 2
mph
1015.2mb 66f
11:18 3
mph
1015.2mb 66f
11:12 3 5 mph 1015.2mb 66f
11:06 3 5 mph 1015.1mb 66f
11:00 3 5 mph 1015mb 66f
10:54 3 5 mph 1015mb 66f
10:48 3 5 mph 1015mb 67f
10:42 3
mph
1015.1mb 67f
10:36 3
mph
1015.1mb 67f
10:30 3 5 mph 1015mb 67f
10:24 5
mph
1015mb 67f
10:18 5 6 mph 1015.1mb 67f
10:12 5
mph
1015.1mb 68f
10:06 5
mph
1015.1mb 68f
10:00 2
mph
1015.1mb 69f
9:54 1
mph
1015.1mb 69f
9:48 1 2 mph 1015mb 69f
9:42 2
mph
1015mb 69f
9:36 2 3 mph 1014.9mb 69f
9:30 3 5 mph 1014.9mb 69f
9:24 3 5 mph 1014.7mb 69f
9:18 3 5 mph 1014.5mb 69f
9:12 3 5 mph 1014.4mb 70f
9:06 2 3 mph 1014.4mb 70f
9:00 3 5 mph 1014.2mb 70f
8:54 3 5 mph 1014.1mb 71f
8:48 5 6 mph 1013.9mb 71f
8:42 6
mph
1013.7mb 71f
8:36 6
mph
1013.6mb 70f
8:30 5 6 mph 1013.7mb 71f
8:24 3 5 mph 1013.8mb 71f
8:18 5 6 mph 1013.7mb 71f
8:12 5 6 mph 1013.7mb 72f
8:06 6 7 mph 1013.7mb 72f
8:00 7 8 mph 1013.6mb 72f
7:54 6 7 mph 1013.6mb 73f
7:48 6 7 mph 1013.5mb 74f
7:42 7 8 mph 1013.3mb 74f
7:36 7 8 mph 1013.3mb 74f
7:30 7 8 mph 1013.3mb 74f
7:24 7 8 mph 1013.3mb 75f
7:18 6 7 mph 1013.2mb 75f
7:12 6 8 mph 1013.2mb 75f
7:06 7 9 mph 1013.1mb 75f
7:00 7 9 mph 1013.2mb 75f
6:54 7 8 mph 1013.1mb 75f
6:48 7 8 mph 1013.2mb 75f
6:42 7 8 mph 1013.2mb 75f
6:36 7 8 mph 1013.2mb 74f
6:30 7
mph
1013.3mb 74f
6:24 7 8 mph 1013.3mb 74f
6:18 6 7 mph 1013.3mb 73f
6:12 7 9 mph 1013.1mb 73f
6:06 9 10 mph 1013mb 74f
6:00 8 9 mph 1012.9mb 74f
5:54 6 8 mph 1013mb 74f
5:48 6 7 mph 1012.9mb 74f
5:42 6 7 mph 1013mb 74f
5:36 6 7 mph 1013.1mb 74f
5:30 6 7 mph 1013mb 74f
5:24 7 10 mph 1012.9mb 74f
5:18 7 10 mph 1012.9mb 74f
5:12 8 10 mph 1013mb 74f
5:06 7 8 mph 1013.1mb 74f
5:00 7 8 mph 1013.3mb 74f
4:54 6 7 mph 1013.6mb 74f
4:48 6
mph
1013.6mb 75f
4:42 6
mph
1013.7mb 75f
4:36 5 6 mph 1013.7mb 75f
4:30 6 7 mph 1013.8mb 75f
4:24 5 6 mph 1013.9mb 75f
4:18 5 6 mph 1014mb 76f
4:12 5 6 mph 1014mb 76f
4:06 3 5 mph 1014mb 76f
4:00 3 6 mph 1014mb 76f
3:54 3
mph
1014mb 76f
3:48 2 3 mph 1014.1mb 76f
3:42 2 3 mph 1014.2mb 76f
3:36 3 5 mph 1014.2mb 76f
3:30 3 5 mph 1014.3mb 76f
3:24 3 5 mph 1014.3mb 76f
3:18 3 6 mph 1014.2mb 75f
3:12 5 6 mph 1014.2mb 76f
3:06 6 7 mph 1014.2mb 76f
3:00 5 7 mph 1014.3mb 76f
2:54 2 3 mph 1014.3mb 76f
2:48 3 6 mph 1014.4mb 75f
2:42 6 7 mph 1014.4mb 75f
2:36 3 5 mph 1014.4mb 74f
2:30 5 6 mph 1014.4mb 74f
2:24 3 6 mph 1014.5mb 73f
2:18 7 9 mph 1014.5mb 73f
2:12 6 8 mph 1014.5mb 74f
2:06 6 8 mph 1014.5mb 73f
2:00 8 10 mph 1014.5mb 73f
1:54 8 11 mph 1014.5mb 73f
1:48 9 14 mph 1014.4mb 73f
1:42 8 9 mph 1014.4mb 73f
1:36 7 9 mph 1014.4mb 73f
1:30 7 9 mph 1014.4mb 73f
1:24 9 11 mph 1014.3mb 74f
1:18 10 14 mph 1014.3mb 74f
1:12 6 9 mph 1014.3mb 73f
1:06 7 8 mph 1014.3mb 73f
1:00 8 10 mph 1014.2mb 73f
12:54 7 11 mph 1014.3mb 73f
12:48 7 9 mph 1014.3mb 73f
12:42 6 9 mph 1014.4mb 73f
12:36 7 9 mph 1014.5mb 74f
12:30 6 7 mph 1014.5mb 73f
12:24 6 8 mph 1014.6mb 73f
12:18 7 10 mph 1014.6mb 73f
12:12 9 11 mph 1014.6mb 73f
12:06 5 7 mph 1014.6mb 73f
12:00 6 9 mph 1014.7mb 73f
11:54 6 9 mph 1014.7mb 73f
11:48 8 9 mph 1014.6mb 73f
11:42 5 6 mph 1014.8mb 73f
11:36 3 5 mph 1014.8mb 72f
11:30 6 8 mph 1014.8mb 72f
11:24 7 9 mph 1014.8mb 72f
11:18 7 9 mph 1014.9mb 72f
11:12 8 11 mph 1014.9mb 72f
11:06 7 9 mph 1015mb 72f
11:00 8 10 mph 1015mb 72f
10:54 8 10 mph 1015mb 72f
10:48 7 8 mph 1015mb 72f
10:42 3 5 mph 1015mb 72f
10:36 7 9 mph 1015mb 71f
10:30 5 6 mph 1015mb 71f
10:24 7 8 mph 1015.1mb 71f
10:18 7 9 mph 1015mb 71f
10:12 7 10 mph 1015mb 71f
10:06 8 10 mph 1014.9mb 71f
10:00 10 11 mph 1014.9mb 71f
9:54 8 14 mph 1014.9mb 71f
9:48 9 13 mph 1014.7mb 71f
9:42 6 8 mph 1014.8mb 71f
9:36 9 11 mph 1014.7mb 71f
9:30 9 11 mph 1014.8mb 71f
9:24 9 11 mph 1014.9mb 71f
9:18 7 9 mph 1015mb 71f
9:12 8 10 mph 1015.1mb 71f
9:06 8 11 mph 1015.1mb 70f
9:00 7 9 mph 1015.1mb 70f
8:54 6 9 mph 1015.2mb 70f
8:48 6 8 mph 1015.3mb 70f
8:42 6 8 mph 1015.3mb 70f
8:36 3 6 mph 1015.3mb 69f
8:30 3 6 mph 1015.3mb 69f
8:24 5 6 mph 1015.3mb 69f
8:18 5 6 mph 1015.4mb 69f
8:12 3 5 mph 1015.4mb 68f
8:06 2 5 mph 1015.5mb 68f
8:00 3 5 mph 1015.5mb 68f
7:54 3 5 mph 1015.6mb 68f
7:48 3 5 mph 1015.5mb 68f
7:42 3 5 mph 1015.5mb 68f
7:36 3 5 mph 1015.6mb 68f
7:30 3 6 mph 1015.4mb 68f
7:24 3 5 mph 1015.5mb 68f
7:18 2 5 mph 1015.4mb 68f
7:12 2 3 mph 1015.4mb 67f
7:06 3 5 mph 1015.4mb 67f
7:00 2 3 mph 1015.4mb 67f
6:54 3
mph
1015.4mb 67f
6:48 2 3 mph 1015.4mb 67f
6:42 2
mph
1015.3mb 67f
6:36 2 3 mph 1015.3mb 67f
6:30 3 5 mph 1015.4mb 67f
6:24 3
mph
1015.4mb 67f
6:18 2 5 mph 1015.4mb 67f
6:12 3 5 mph 1015.4mb 67f
6:06 2 3 mph 1015.3mb 67f
6:00 1 2 mph 1015.5mb 67f
5:54 2
mph
1015.5mb 67f
5:48 2 3 mph 1015.5mb 67f
5:42 2 3 mph 1015.6mb 66f
5:36 2
mph
1015.6mb 66f
5:30 2 3 mph 1015.7mb 66f
5:24 3 5 mph 1015.7mb 66f
5:18 3 5 mph 1015.6mb 66f
5:12 2 3 mph 1015.4mb 66f
5:06 2
mph
1015.5mb 66f
5:00 2 3 mph 1015.5mb 66f
4:54 1 2 mph 1015.5mb 66f
4:48 3
mph
1015.6mb 66f
4:42 2 3 mph 1015.5mb 66f
4:36 3 5 mph 1015.5mb 66f
4:30 3
mph
1015.5mb 66f
4:24 2 3 mph 1015.4mb 66f
4:18 2 3 mph 1015.5mb 66f
4:12 2 3 mph 1015.5mb 66f
4:06 3
mph
1015.6mb 66f
4:00 2 3 mph 1015.6mb 66f
3:54 3
mph
1015.6mb 66f
3:48 2 3 mph 1015.7mb 66f
3:42 2 3 mph 1015.7mb 66f
3:36 5
mph
1015.8mb 66f
3:30 3 5 mph 1015.8mb 66f
3:24 2 3 mph 1015.7mb 66f
3:18 2 3 mph 1015.7mb 66f
3:12 2 3 mph 1015.8mb 66f
3:06 3
mph
1015.8mb 66f
3:00 3 5 mph 1015.9mb 66f
2:54 3 5 mph 1015.9mb 66f
2:48 2 3 mph 1015.8mb 66f
2:42 2 3 mph 1015.8mb 66f
2:36 2 3 mph 1015.8mb 66f
2:30 3 5 mph 1015.6mb 66f
2:24 3 5 mph 1015.6mb 66f
2:18 3 5 mph 1015.6mb 66f
2:12 3 5 mph 1015.6mb 67f
2:06 5 6 mph 1015.6mb 66f
2:00 5 7 mph 1015.6mb 67f
1:54 6 8 mph 1015.8mb 67f
1:48 7 8 mph 1015.8mb 67f
1:42 6 8 mph 1015.8mb 67f
1:36 6 8 mph 1015.9mb 67f
1:30 6 8 mph 1015.9mb 67f
1:24 6 7 mph 1016mb 67f
1:18 6 7 mph 1016mb 67f
1:12 5 6 mph 1015.9mb 67f
1:06 5 6 mph 1016mb 66f
1:00 5 6 mph 1015.9mb 67f
12:54 5 6 mph 1015.9mb 67f
12:48 5 6 mph 1016mb 67f
12:42 5 6 mph 1015.9mb 66f
12:36 3 5 mph 1016mb 66f
12:30 5 6 mph 1015.9mb 66f
12:24 5 6 mph 1015.9mb 66f
12:18 5 6 mph 1015.8mb 66f
12:12 3 5 mph 1015.9mb 66f
12:06 3 5 mph 1015.9mb 66f
12:00 3 5 mph 1015.9mb 67f
vie 07/03 11:54 3 5 mph 1015.8mb 67f
11:48 5 6 mph 1015.8mb 67f
11:42 3 5 mph 1015.9mb 67f
11:36 5 6 mph 1015.9mb 67f
11:30 7 10 mph 1015.8mb 67f
11:24 8 13 mph 1015.8mb 68f
11:18 6 8 mph 1015.8mb 67f
11:12 5 7 mph 1015.8mb 67f
11:06 6
mph
1015.7mb 67f
11:00 6 7 mph 1015.7mb 67f
10:54 6 7 mph 1015.7mb 67f
10:48 3 5 mph 1015.6mb 68f
10:42 3
mph
1015.6mb 68f
10:36 2 5 mph 1015.6mb 68f
10:30 5 6 mph 1015.6mb 68f
10:24 5 6 mph 1015.7mb 68f
10:18 5 6 mph 1015.6mb 68f
10:12 3 5 mph 1015.6mb 68f
10:06 3 5 mph 1015.6mb 69f
10:00 5 6 mph 1015.6mb 68f
9:54 5 6 mph 1015.6mb 69f
9:48 6 8 mph 1015.6mb 69f
9:42 7 8 mph 1015.6mb 69f
9:36 7 10 mph 1015.5mb 69f
9:30 9 11 mph 1015.4mb 69f
9:24 8 10 mph 1015.3mb 69f
9:18 8 11 mph 1015.3mb 69f
9:12 8 10 mph 1015.1mb 70f
9:06 7 8 mph 1015.1mb 70f
9:00 6 8 mph 1015mb 70f
8:54 7 8 mph 1015mb 70f
8:48 5 6 mph 1014.8mb 70f
8:42 5 6 mph 1014.8mb 70f
8:36 6 7 mph 1014.7mb 70f
8:30 6 8 mph 1014.7mb 70f
8:24 7 9 mph 1014.8mb 70f
8:18 8 10 mph 1014.8mb 70f
8:12 10 11 mph 1014.8mb 70f
8:06 9 11 mph 1014.8mb 70f
8:00 10 13 mph 1014.7mb 70f
7:54 7 10 mph 1014.7mb 71f
7:48 7 9 mph 1014.7mb 71f
7:42 8 10 mph 1014.7mb 71f
7:36 8 10 mph 1014.7mb 71f
7:30 8 11 mph 1014.7mb 71f
7:24 8 10 mph 1014.6mb 72f
7:18 11 14 mph 1014.6mb 72f
7:12 10 13 mph 1014.6mb 73f
7:06 13 15 mph 1014.5mb 73f
7:00 14 17 mph 1014.4mb 73f
6:54 14 17 mph 1014.4mb 73f
6:48 16 17 mph 1014.3mb 73f
6:42 16 18 mph 1014.2mb 73f
6:36 17 21 mph 1014.1mb 73f
6:30 17 21 mph 1014.1mb 73f
6:24 18 20 mph 1014mb 73f
6:18 17 20 mph 1014mb 73f
6:12 16 21 mph 1013.9mb 74f
6:06 14 18 mph 1013.9mb 74f
6:00 17 21 mph 1013.8mb 74f
5:54 16 20 mph 1013.8mb 74f
5:48 16 18 mph 1013.8mb 74f
5:42 16 20 mph 1013.8mb 74f
5:36 16 18 mph 1013.7mb 74f
5:30 16 20 mph 1013.8mb 74f
5:24 16 18 mph 1013.7mb 74f
5:18 17 20 mph 1013.8mb 73f
5:12 16 18 mph 1013.8mb 74f
5:06 15 17 mph 1013.7mb 74f
5:00 16 18 mph 1013.8mb 73f
4:54 18 20 mph 1013.7mb 74f
4:48 17 20 mph 1013.8mb 73f
4:42 17 20 mph 1013.9mb 73f
4:36 18 21 mph 1013.9mb 73f
4:30 17 20 mph 1013.8mb 73f
4:24 15 17 mph 1013.9mb 73f
4:18 17 18 mph 1013.8mb 74f
4:12 15 17 mph 1013.9mb 74f
4:06 16 17 mph 1013.9mb 74f
4:00 17 18 mph 1013.8mb 74f
3:54 17 18 mph 1013.8mb 74f
3:48 17 18 mph 1013.8mb 74f
3:42 17 20 mph 1013.8mb 74f
3:36 8 9 mph 1013.9mb 75f
3:30 7 8 mph 1013.9mb 75f
3:24 9 11 mph 1013.9mb 75f
3:18 8 9 mph 1013.9mb 75f
3:12 7 8 mph 1014mb 75f
3:06 7 8 mph 1014mb 76f
3:00 7 8 mph 1014.1mb 75f
2:54 8 9 mph 1014mb 75f
2:48 9 10 mph 1014mb 75f
2:42 10
mph
1014mb 74f
2:36 10
mph
1014mb 75f
2:30 9
mph
1014.1mb 75f
2:24 9 10 mph 1014.1mb 75f
2:18 10
mph
1014.1mb 75f
2:12 8 9 mph 1014.1mb 75f
2:06 8 9 mph 1014mb 75f
2:00 8 10 mph 1014.1mb 75f
1:54 9 10 mph 1014.1mb 75f
1:48 10 11 mph 1014.2mb 74f
1:42 9 10 mph 1014.2mb 74f
1:36 10 11 mph 1014.2mb 74f
1:30 9 10 mph 1014.3mb 74f
1:24 9 10 mph 1014.3mb 74f
1:18 10 11 mph 1014.3mb 73f
1:12 13 14 mph 1014.3mb 73f
1:06 5 8 mph 1014.3mb 75f
1:00 5 6 mph 1014.3mb 74f
12:54 6 7 mph 1014.3mb 74f
12:48 6 7 mph 1014.3mb 74f
12:42 6 7 mph 1014.2mb 74f
12:36 2 3 mph 1014.3mb 76f
12:30 2 5 mph 1014.3mb 76f
12:24 1 3 mph 1014.2mb 79f
12:18 3 5 mph 1014.1mb 78f
12:12  -  2 mph 1014.2mb 78f
12:06 3 6 mph 1014.1mb 77f
12:00 5 6 mph 1014.1mb 77f
11:54 6 8 mph 1014mb 77f
11:48 5 6 mph 1014mb 76f
11:42 6 7 mph 1014mb 76f
11:36 7 8 mph 1014mb 76f
11:30 5 6 mph 1014mb 76f
11:24 8 10 mph 1013.9mb 75f
11:18 6 9 mph 1013.9mb 75f
11:12 10 11 mph 1013.8mb 75f
11:06 10 11 mph 1013.8mb 74f
11:00 8 10 mph 1013.9mb 74f
10:54 10 11 mph 1013.9mb 74f
10:48 9 11 mph 1013.8mb 74f
10:42 9 11 mph 1013.9mb 73f
10:36 10 11 mph 1013.9mb 73f
10:30 8 9 mph 1013.9mb 73f
10:24 9 13 mph 1013.9mb 73f
10:18 7 9 mph 1014mb 73f
10:12 8 10 mph 1014mb 73f
10:06 10 11 mph 1013.9mb 72f
10:00 9 11 mph 1013.9mb 73f
9:54 8 11 mph 1013.9mb 73f
9:48 9 11 mph 1013.9mb 72f
9:42 10 13 mph 1013.9mb 72f
9:36 10 13 mph 1013.9mb 72f
9:30 10 11 mph 1013.8mb 72f
9:24 10 11 mph 1013.8mb 71f
9:18 9 11 mph 1013.9mb 71f
9:12 10 11 mph 1013.9mb 71f
9:06 10 13 mph 1013.8mb 71f
9:00 8 10 mph 1013.9mb 70f
8:54 9 13 mph 1013.8mb 70f
8:48 10 13 mph 1013.7mb 70f
8:42 10 13 mph 1013.6mb 69f
8:36 10 14 mph 1013.6mb 69f
8:30 9 11 mph 1013.6mb 69f
8:18 8 10 mph 1013.6mb 69f
8:12 7 9 mph 1013.5mb 69f
8:06 8 13 mph 1013.4mb 69f
8:00 10 14 mph 1013.3mb 68f
7:54 9 13 mph 1013.3mb 68f
7:48 8 10 mph 1013.2mb 68f
7:42 10 13 mph 1013.2mb 67f
7:36 7 9 mph 1013.1mb 67f
7:30 5 8 mph 1013.2mb 66f
7:24 2 5 mph 1013.1mb 66f
7:18 3 5 mph 1013.1mb 66f
7:12 5 6 mph 1013mb 65f
7:06 5
mph
1013mb 65f
7:00 3 5 mph 1012.9mb 65f
6:54 5
mph
1012.8mb 64f
6:48 3 6 mph 1012.8mb 65f
6:42 3 5 mph 1012.7mb 64f
6:36 5 6 mph 1012.7mb 64f
6:30 5 6 mph 1012.7mb 64f
6:24 5 6 mph 1012.6mb 64f
6:18 5 6 mph 1012.5mb 64f
6:12 5 6 mph 1012.4mb 64f
6:06 6
mph
1012.3mb 64f
6:00 3 6 mph 1012mb 65f
5:54 3 5 mph 1011.8mb 65f
5:48 3 6 mph 1011.8mb 65f
5:42 3 5 mph 1011.8mb 65f
5:36 5 6 mph 1011.6mb 65f
5:30 5 6 mph - 65f
5:24 6 7 mph - 65f
5:18 6
mph
1011.4mb 65f
5:12 6 7 mph 1011.4mb 65f
5:06 5 6 mph 1011.3mb 65f
5:00 5 7 mph 1011.3mb 66f
4:54 3
mph
1011.4mb 66f